Time;durP1;ratioP1;P1;durP2;ratioP2;P2;SDS_P1;SDS_P2;PMS_P1;PMS_P2;Temp;Humidity;BMP_temperature;BMP_pressure;BME280_temperature;BME280_humidity;BME280_pressure;Samples;Min_cycle;Max_cycle;Signal;HPM_P1;HPM_P2
2020/12/02 00:02:21;;;;;;;73.77;35.90;;;;;;;-2.80;75.06;101199.48;126688;1093;104602;-74
2020/12/02 00:04:50;;;;;;;77.87;36.60;;;;;;;-2.82;75.16;101201.12;126675;1093;105237;-74
2020/12/02 00:07:18;;;;;;;78.35;37.80;;;;;;;-2.82;74.72;101201.98;126683;1093;104545;-75
2020/12/02 00:09:47;;;;;;;76.50;34.97;;;;;;;-2.84;75.29;101197.64;126711;1093;104564;-75
2020/12/02 00:12:14;;;;;;;68.03;34.70;;;;;;;-2.88;75.39;101196.63;126686;1093;104334;-75
2020/12/02 00:14:41;;;;;;;75.50;34.07;;;;;;;-2.89;75.52;101204.23;126621;1092;104439;-76
2020/12/02 00:17:15;;;;;;;76.55;35.80;;;;;;;-2.90;75.44;101197.39;126652;1093;104485;-75
2020/12/02 00:19:42;;;;;;;70.93;35.57;;;;;;;-2.93;75.62;101198.16;126682;1093;104529;-75
2020/12/02 00:22:14;;;;;;;77.00;35.93;;;;;;;-2.95;75.05;101191.25;126545;1093;104359;-75
2020/12/02 00:24:43;;;;;;;75.37;35.57;;;;;;;-2.92;75.42;101193.91;126713;1098;104468;-75
2020/12/02 00:27:23;;;;;;;76.90;35.63;;;;;;;-2.93;75.04;101193.05;126723;1093;104458;-75
2020/12/02 00:29:50;;;;;;;72.97;34.47;;;;;;;-2.92;76.08;101199.02;126726;1093;104458;-75
2020/12/02 00:32:35;;;;;;;73.43;35.00;;;;;;;-2.97;75.65;101193.75;126694;1093;104474;-74
2020/12/02 00:35:04;;;;;;;76.10;36.13;;;;;;;-3.02;76.23;101202.06;126710;1093;104202;-75
2020/12/02 00:37:31;;;;;;;73.60;35.10;;;;;;;-3.06;76.18;101201.92;126690;1093;104506;-75
2020/12/02 00:39:59;;;;;;;78.80;35.23;;;;;;;-3.10;75.20;101205.17;126644;1093;104474;-74
2020/12/02 00:42:26;;;;;;;70.47;34.13;;;;;;;-3.10;75.90;101211.95;126688;1093;105699;-75
2020/12/02 00:44:55;;;;;;;75.00;35.37;;;;;;;-3.15;76.44;101205.81;126646;1093;104474;-74
2020/12/02 00:47:24;;;;;;;76.43;34.80;;;;;;;-3.18;76.64;101209.13;126691;1093;104417;-75
2020/12/02 00:49:54;;;;;;;67.70;32.83;;;;;;;-3.20;76.43;101207.33;126718;1098;104439;-75
2020/12/02 00:52:24;;;;;;;74.93;34.83;;;;;;;-3.22;76.23;101203.85;126648;1093;104490;-74
2020/12/02 00:54:52;;;;;;;69.17;34.50;;;;;;;-3.21;76.63;101198.80;126761;1093;104463;-75
2020/12/02 00:57:22;;;;;;;71.47;33.17;;;;;;;-3.21;76.54;101196.26;126752;1093;104436;-74
2020/12/02 00:59:54;;;;;;;70.13;34.07;;;;;;;-3.21;75.73;101198.80;126617;1093;104379;-75
2020/12/02 01:02:30;;;;;;;73.90;34.95;;;;;;;-3.21;76.31;101191.16;126699;1093;104385;-75
2020/12/02 01:04:59;;;;;;;71.02;33.88;;;;;;;-3.23;76.21;101202.08;126665;1093;104461;-76
2020/12/02 01:07:28;;;;;;;69.57;33.80;;;;;;;-3.30;76.60;101193.33;126677;1093;104581;-75
2020/12/02 01:09:56;;;;;;;67.80;33.40;;;;;;;-3.32;76.20;101207.71;126715;1093;104462;-76
2020/12/02 01:12:23;;;;;;;66.33;33.00;;;;;;;-3.33;76.03;101198.32;126685;1093;104444;-75
2020/12/02 01:14:50;;;;;;;67.50;34.37;;;;;;;-3.35;76.77;101199.95;126726;1093;104418;-75
2020/12/02 01:17:17;;;;;;;73.60;34.27;;;;;;;-3.38;76.77;101197.28;126668;1093;102705;-75
2020/12/02 01:19:45;;;;;;;64.73;32.27;;;;;;;-3.41;76.28;101192.94;126721;1093;104436;-76
2020/12/02 01:22:42;;;;;;;66.80;33.20;;;;;;;-3.43;77.36;101196.20;126615;1093;104561;-75
2020/12/02 01:25:14;;;;;;;70.92;33.88;;;;;;;-3.45;76.57;101192.73;126563;1096;104366;-75
2020/12/02 01:28:04;;;;;;;73.95;35.15;;;;;;;-3.47;76.40;101195.22;126736;1092;104438;-75
2020/12/02 01:30:35;;;;;;;65.17;31.70;;;;;;;-3.51;76.72;101193.37;126673;1093;103087;-75
2020/12/02 01:33:03;;;;;;;65.70;33.73;;;;;;;-3.51;76.64;101197.59;126714;1093;104545;-75
2020/12/02 01:35:32;;;;;;;70.50;34.10;;;;;;;-3.51;76.87;101200.15;126626;1093;104464;-75
2020/12/02 01:38:05;;;;;;;67.83;34.33;;;;;;;-3.52;76.94;101200.96;126740;1093;104372;-75
2020/12/02 01:40:35;;;;;;;67.70;34.03;;;;;;;-3.53;76.95;101191.57;126719;1093;104381;-75
2020/12/02 01:43:07;;;;;;;69.50;33.90;;;;;;;-3.54;76.96;101184.73;126683;1093;104372;-75
2020/12/02 01:45:37;;;;;;;72.50;33.70;;;;;;;-3.52;77.22;101185.66;126643;1093;103700;-75
2020/12/02 01:48:29;;;;;;;66.43;32.37;;;;;;;-3.54;76.52;101184.73;126631;1093;104910;-75
2020/12/02 01:51:25;;;;;;;73.50;33.77;;;;;;;-3.56;76.73;101183.81;126662;1093;104471;-76
2020/12/02 01:54:01;;;;;;;63.47;31.23;;;;;;;-3.60;77.66;101184.47;126701;1093;104516;-75
2020/12/02 01:56:41;;;;;;;64.15;30.55;;;;;;;-3.65;77.47;101192.81;126703;1093;104430;-75
2020/12/02 01:59:27;;;;;;;67.07;32.60;;;;;;;-3.70;76.78;101181.57;126688;1093;104525;-75
2020/12/02 02:02:10;;;;;;;65.00;30.53;;;;;;;-3.72;77.51;101183.19;126625;1093;104522;-75
2020/12/02 02:04:51;;;;;;;65.63;31.03;;;;;;;-3.75;77.47;101184.75;126577;1093;104320;-75
2020/12/02 02:07:23;;;;;;;62.27;32.60;;;;;;;-3.79;77.28;101170.12;126674;1091;104468;-76
2020/12/02 02:09:59;;;;;;;67.87;31.77;;;;;;;-3.80;77.42;101166.70;126736;1093;104340;-76
2020/12/02 02:12:25;;;;;;;61.83;30.20;;;;;;;-3.82;77.16;101170.87;126674;1093;104439;-75
2020/12/02 02:15:14;;;;;;;61.28;30.75;;;;;;;-3.86;77.33;101169.02;126626;1093;104949;-74
2020/12/02 02:17:41;;;;;;;62.63;31.20;;;;;;;-3.88;77.69;101165.53;126678;1094;104433;-73
2020/12/02 02:20:13;;;;;;;59.13;31.20;;;;;;;-3.87;77.18;101172.37;126711;1093;104465;-75
2020/12/02 02:22:40;;;;;;;59.20;30.37;;;;;;;-3.90;77.70;101172.25;126727;1098;104410;-75
2020/12/02 02:25:12;;;;;;;64.75;31.00;;;;;;;-3.92;77.61;101181.52;126670;1093;104522;-75
2020/12/02 02:27:42;;;;;;;58.10;29.63;;;;;;;-3.93;77.38;101172.13;126681;1093;104544;-75
2020/12/02 02:30:10;;;;;;;58.87;29.40;;;;;;;-3.93;77.75;101178.91;126708;1093;104381;-75
2020/12/02 02:32:37;;;;;;;53.30;27.73;;;;;;;-3.96;77.80;101167.75;126699;1093;104396;-75
2020/12/02 02:35:05;;;;;;;63.03;30.47;;;;;;;-3.98;77.77;101160.86;126688;1091;104420;-75
2020/12/02 02:37:33;;;;;;;60.37;30.13;;;;;;;-4.00;77.47;101177.77;126702;1093;104510;-75
2020/12/02 02:40:01;;;;;;;56.60;28.97;;;;;;;-4.01;77.23;101171.80;126688;1093;104528;-76
2020/12/02 02:42:41;;;;;;;56.10;29.67;;;;;;;-4.02;76.94;101170.06;126738;1093;104465;-75
2020/12/02 02:45:13;;;;;;;57.73;28.87;;;;;;;-4.01;77.61;101169.25;126689;1093;104326;-76
2020/12/02 02:47:41;;;;;;;61.80;28.33;;;;;;;-4.01;77.39;101173.47;126689;1093;105671;-75
2020/12/02 02:50:12;;;;;;;56.93;29.20;;;;;;;-4.04;77.09;101175.91;126705;1093;104436;-75
2020/12/02 02:52:41;;;;;;;59.73;28.97;;;;;;;-4.03;77.14;101177.64;126740;1093;104878;-75
2020/12/02 02:55:35;;;;;;;55.33;27.70;;;;;;;-4.05;77.23;101167.39;126738;1093;104420;-75
2020/12/02 02:58:02;;;;;;;58.73;28.63;;;;;;;-4.08;76.94;101163.85;126677;1093;104369;-75
2020/12/02 03:00:32;;;;;;;55.97;28.00;;;;;;;-4.08;77.49;101166.40;126559;1093;104371;-75
2020/12/02 03:03:00;;;;;;;53.13;28.37;;;;;;;-4.07;77.10;101175.78;126730;1093;104491;-76
2020/12/02 03:05:28;;;;;;;57.60;28.27;;;;;;;-4.09;77.25;101173.17;126686;1093;104459;-75
2020/12/02 03:07:59;;;;;;;52.13;27.90;;;;;;;-4.09;76.91;101165.53;126682;1092;104376;-75
2020/12/02 03:10:30;;;;;;;53.53;26.07;;;;;;;-4.11;76.97;101169.70;126697;1093;104465;-75
2020/12/02 03:13:03;;;;;;;52.63;26.37;;;;;;;-4.13;77.43;101170.41;126722;1093;104387;-75
2020/12/02 03:15:32;;;;;;;51.85;27.65;;;;;;;-4.14;76.87;101161.03;126634;1093;104547;-75
2020/12/02 03:18:00;;;;;;;54.87;26.67;;;;;;;-4.14;77.21;101163.58;126717;1098;104455;-76
2020/12/02 03:20:35;;;;;;;48.80;24.97;;;;;;;-4.13;76.96;101180.59;126526;1093;104372;-75
2020/12/02 03:23:03;;;;;;;43.70;24.57;;;;;;;-4.14;77.51;101171.22;126682;1093;104451;-74
2020/12/02 03:25:32;;;;;;;46.35;24.70;;;;;;;-4.14;77.50;101171.22;126680;1094;104449;-75
2020/12/02 03:28:00;;;;;;;47.67;25.47;;;;;;;-4.16;76.77;101170.28;126741;1092;104502;-75
2020/12/02 03:30:28;;;;;;;47.90;25.53;;;;;;;-4.18;77.13;101169.36;126702;1093;104423;-75
2020/12/02 03:32:55;;;;;;;45.20;24.50;;;;;;;-4.18;76.99;101177.00;126659;1093;104975;-77
2020/12/02 03:35:22;;;;;;;42.90;24.35;;;;;;;-4.16;77.17;101170.28;126641;1093;104491;-75
2020/12/02 03:37:50;;;;;;;44.95;24.32;;;;;;;-4.14;77.11;101168.67;126664;1093;103203;-75
2020/12/02 03:40:17;;;;;;;48.58;25.77;;;;;;;-4.15;77.27;101175.44;126697;1093;104431;-75
2020/12/02 03:42:44;;;;;;;46.50;25.10;;;;;;;-4.16;76.81;101167.73;126629;1093;104442;-75
2020/12/02 03:45:12;;;;;;;45.45;24.70;;;;;;;-4.16;76.58;101168.61;126716;1093;104432;-75
2020/12/02 03:47:40;;;;;;;45.27;25.07;;;;;;;-4.12;76.73;101177.28;126728;1093;104474;-75
2020/12/02 03:50:09;;;;;;;48.37;23.43;;;;;;;-4.07;76.80;101166.46;126724;1093;104391;-75
2020/12/02 03:52:37;;;;;;;41.97;25.10;;;;;;;-4.05;76.56;101167.39;126717;1093;104581;-75
2020/12/02 03:55:06;;;;;;;44.03;24.33;;;;;;;-4.08;76.30;101180.00;126659;1093;104442;-75
2020/12/02 03:57:34;;;;;;;42.93;23.30;;;;;;;-4.14;76.28;101179.73;126667;1093;104510;-75
2020/12/02 04:00:07;;;;;;;43.17;24.37;;;;;;;-4.21;76.35;101181.97;126706;1093;104398;-75
2020/12/02 04:02:34;;;;;;;44.60;24.87;;;;;;;-4.25;76.45;101168.24;126717;1093;104445;-75
2020/12/02 04:05:01;;;;;;;42.70;23.53;;;;;;;-4.24;76.86;101181.84;126693;1093;104436;-75
2020/12/02 04:07:28;;;;;;;42.40;22.53;;;;;;;-4.23;76.66;101168.30;126666;1093;104477;-76
2020/12/02 04:09:55;;;;;;;44.13;23.83;;;;;;;-4.19;76.43;101172.71;126672;1093;104382;-75
2020/12/02 04:12:22;;;;;;;43.25;23.20;;;;;;;-4.17;76.47;101173.64;126681;1098;108030;-76
2020/12/02 04:14:49;;;;;;;44.33;23.20;;;;;;;-4.14;76.50;101166.13;126766;1093;104398;-75
2020/12/02 04:17:16;;;;;;;40.57;22.87;;;;;;;-4.09;76.90;101162.11;126724;1093;105885;-75
2020/12/02 04:19:43;;;;;;;40.93;22.43;;;;;;;-4.06;76.40;101172.42;126675;1090;104459;-75
2020/12/02 04:22:10;;;;;;;41.80;23.30;;;;;;;-4.09;76.57;101185.91;126643;1093;104427;-75
2020/12/02 04:24:38;;;;;;;40.00;21.63;;;;;;;-4.12;76.90;101178.14;126696;1093;103220;-76
2020/12/02 04:27:06;;;;;;;41.73;23.00;;;;;;;-4.15;76.23;101177.12;126684;1098;104484;-76
2020/12/02 04:29:33;;;;;;;47.40;24.43;;;;;;;-4.14;76.37;101179.73;126658;1093;104531;-76
2020/12/02 04:32:01;;;;;;;44.03;23.80;;;;;;;-4.10;77.05;101181.63;126696;1093;104836;-75
2020/12/02 04:34:28;;;;;;;40.57;23.43;;;;;;;-4.08;76.78;101174.05;126682;1093;104389;-75
2020/12/02 04:36:55;;;;;;;39.57;23.20;;;;;;;-4.06;76.46;101177.52;126725;1093;104436;-75
2020/12/02 04:39:22;;;;;;;37.70;21.40;;;;;;;-4.09;75.90;101178.27;126661;1093;105600;-74
2020/12/02 04:41:49;;;;;;;38.30;21.70;;;;;;;-4.09;76.04;101177.40;126751;1093;104398;-76
2020/12/02 04:44:16;;;;;;;40.37;22.37;;;;;;;-4.09;75.59;101177.40;126794;1093;104400;-75
2020/12/02 04:46:43;;;;;;;38.73;21.83;;;;;;;-4.06;75.65;101167.33;126707;1098;104526;-75
2020/12/02 04:49:26;;;;;;;42.70;22.20;;;;;;;-4.05;75.88;101169.94;126679;1093;104249;-75
2020/12/02 04:52:10;;;;;;;40.53;23.40;;;;;;;-4.02;75.88;101169.19;126607;1093;104516;-75
2020/12/02 04:54:38;;;;;;;37.43;21.70;;;;;;;-3.96;75.84;101156.69;126712;1093;104388;-75
2020/12/02 04:57:06;;;;;;;40.10;21.80;;;;;;;-3.93;75.15;101161.07;126709;1093;104381;-76
2020/12/02 04:59:39;;;;;;;39.30;22.90;;;;;;;-3.90;75.53;101162.06;126727;1093;104366;-76
2020/12/02 05:02:07;;;;;;;39.47;22.70;;;;;;;-3.87;75.47;101164.72;126662;1093;104474;-75
2020/12/02 05:04:34;;;;;;;40.07;21.00;;;;;;;-3.87;75.57;101159.63;126680;1093;104359;-76
2020/12/02 05:07:06;;;;;;;37.80;22.20;;;;;;;-3.85;75.55;101167.33;126680;1093;104497;-75
2020/12/02 05:09:50;;;;;;;38.00;22.80;;;;;;;-3.82;75.67;101165.77;126693;1098;104417;-75
2020/12/02 05:12:24;;;;;;;39.47;22.77;;;;;;;-3.80;75.09;101165.83;126694;1092;104480;-75
2020/12/02 05:14:51;;;;;;;37.50;22.33;;;;;;;-3.81;75.23;101167.51;126703;1093;103209;-75
2020/12/02 05:17:22;;;;;;;37.83;22.57;;;;;;;-3.82;75.07;101158.13;126631;1093;105653;-75
2020/12/02 05:20:06;;;;;;;39.77;21.43;;;;;;;-3.82;75.50;101155.58;126645;1093;104254;-76
2020/12/02 05:22:43;;;;;;;38.50;21.90;;;;;;;-3.80;75.44;101169.25;126739;1093;104586;-76
2020/12/02 05:25:32;;;;;;;37.23;22.45;;;;;;;-3.79;75.29;101178.63;126740;1094;104557;-76
2020/12/02 05:28:26;;;;;;;40.47;22.93;;;;;;;-3.77;75.24;101161.75;126658;1093;104430;-75
2020/12/02 05:31:19;;;;;;;38.57;22.93;;;;;;;-3.72;75.45;101167.02;126654;1099;104506;-75
2020/12/02 05:33:47;;;;;;;41.50;23.30;;;;;;;-3.68;75.45;101164.65;126726;1093;104401;-75
2020/12/02 05:36:18;;;;;;;36.00;22.23;;;;;;;-3.65;74.90;101184.30;126680;1093;104414;-76
2020/12/02 05:38:55;;;;;;;39.43;23.10;;;;;;;-3.65;75.41;101167.31;126690;1093;104833;-74
2020/12/02 05:41:24;;;;;;;43.63;23.80;;;;;;;-3.62;74.91;101170.80;126687;1093;104487;-76
2020/12/02 05:44:16;;;;;;;38.13;22.67;;;;;;;-3.59;75.28;101174.36;126761;1093;104545;-74
2020/12/02 05:46:49;;;;;;;40.57;23.10;;;;;;;-3.57;75.06;101162.53;126680;1093;104298;-75
2020/12/02 05:49:37;;;;;;;46.90;24.67;;;;;;;-3.55;74.98;101173.66;126718;1093;104538;-76
2020/12/02 05:52:32;;;;;;;36.00;21.40;;;;;;;-3.52;75.19;101183.11;126612;1093;104334;-75
2020/12/02 05:55:18;;;;;;;37.27;21.10;;;;;;;-3.53;74.81;101178.82;126693;1093;104580;-75
2020/12/02 05:58:17;;;;;;;34.70;21.73;;;;;;;-3.51;74.78;101184.84;126621;1093;104997;-76
2020/12/02 06:00:44;;;;;;;37.10;21.90;;;;;;;-3.52;74.74;101189.08;126591;1092;104391;-75
2020/12/02 06:03:16;;;;;;;34.70;21.77;;;;;;;-3.51;75.23;101189.95;126591;1093;104465;-75
2020/12/02 06:05:44;;;;;;;38.30;22.20;;;;;;;-3.50;74.29;101192.55;126687;1093;104532;-75
2020/12/02 06:08:31;;;;;;;35.20;21.07;;;;;;;-3.49;74.08;101190.88;126652;1093;105244;-75
2020/12/02 06:11:18;;;;;;;37.97;21.97;;;;;;;-3.46;74.31;101194.41;126553;1093;104218;-75
2020/12/02 06:13:56;;;;;;;39.80;22.17;;;;;;;-3.43;74.95;101188.55;126662;1093;104484;-74
2020/12/02 06:16:32;;;;;;;41.45;23.05;;;;;;;-3.39;74.32;101180.23;126730;1093;104378;-75
2020/12/02 06:19:10;;;;;;;36.77;22.10;;;;;;;-3.35;75.11;101187.19;126696;1093;104455;-76
2020/12/02 06:21:48;;;;;;;38.40;23.23;;;;;;;-3.32;74.61;101181.34;126676;1093;104529;-75
2020/12/02 06:24:46;;;;;;;37.90;21.75;;;;;;;-3.31;73.62;101173.73;126651;1093;103550;-76
2020/12/02 06:27:13;;;;;;;36.80;20.80;;;;;;;-3.32;73.87;101179.66;126480;1093;104432;-75
2020/12/02 06:29:42;;;;;;;35.23;21.63;;;;;;;-3.32;73.87;101186.44;126648;1093;104432;-75
2020/12/02 06:32:19;;;;;;;37.57;22.40;;;;;;;-3.31;73.93;101193.28;126646;1098;104526;-75
2020/12/02 06:34:49;;;;;;;35.57;21.93;;;;;;;-3.29;74.34;101196.75;126701;1098;102802;-76
2020/12/02 06:37:20;;;;;;;34.37;21.30;;;;;;;-3.27;74.19;101190.89;126684;1093;104391;-75
2020/12/02 06:39:54;;;;;;;38.17;22.50;;;;;;;-3.24;73.81;101188.45;126703;1099;104796;-75
2020/12/02 06:42:36;;;;;;;34.80;22.87;;;;;;;-3.21;73.73;101200.48;126626;1093;104398;-75
2020/12/02 06:45:11;;;;;;;36.00;21.67;;;;;;;-3.21;73.33;101201.36;126689;1093;104455;-75
2020/12/02 06:48:02;;;;;;;34.25;20.65;;;;;;;-3.23;73.79;101202.98;126677;1094;104455;-75
2020/12/02 06:50:34;;;;;;;34.40;21.57;;;;;;;-3.24;73.08;101198.66;126628;1093;104509;-76
2020/12/02 06:53:16;;;;;;;38.47;21.20;;;;;;;-3.25;72.88;101199.47;126686;1094;104304;-75
2020/12/02 06:55:45;;;;;;;33.70;21.35;;;;;;;-3.24;73.53;101200.34;126661;1093;104429;-75
2020/12/02 06:58:17;;;;;;;37.87;21.53;;;;;;;-3.24;73.24;101211.41;126528;1093;104538;-76
2020/12/02 07:00:52;;;;;;;35.53;21.17;;;;;;;-3.24;73.40;101196.11;126716;1093;104497;-75
2020/12/02 07:03:34;;;;;;;32.80;21.23;;;;;;;-3.23;72.94;101214.84;126694;1093;104513;-76
2020/12/02 07:06:26;;;;;;;35.35;21.35;;;;;;;-3.20;73.44;101199.67;126648;1093;104336;-77
2020/12/02 07:09:04;;;;;;;33.70;20.63;;;;;;;-3.21;72.98;101191.16;126678;1093;104407;-76
2020/12/02 07:11:32;;;;;;;35.67;21.70;;;;;;;-3.20;73.66;101204.78;126724;1093;104391;-76
2020/12/02 07:14:21;;;;;;;35.47;22.03;;;;;;;-3.21;72.83;101198.80;126704;1093;102045;-76
2020/12/02 07:16:57;;;;;;;37.40;22.13;;;;;;;-3.22;72.39;101202.17;126671;1093;104495;-76
2020/12/02 07:19:33;;;;;;;33.95;21.52;;;;;;;-3.23;72.34;101189.33;126660;1098;104394;-75
2020/12/02 07:22:06;;;;;;;36.03;21.97;;;;;;;-3.21;72.92;101196.26;126568;1093;104532;-75
2020/12/02 07:24:41;;;;;;;32.70;21.50;;;;;;;-3.19;73.60;101198.86;126672;1093;104400;-74
2020/12/02 07:27:09;;;;;;;34.43;21.53;;;;;;;-3.18;72.48;101214.23;126660;1093;104471;-74
2020/12/02 07:29:36;;;;;;;37.10;22.00;;;;;;;-3.20;72.48;101213.30;126615;1093;104584;-75
2020/12/02 07:32:06;;;;;;;37.13;23.03;;;;;;;-3.20;73.05;101209.87;126665;1093;104413;-77
2020/12/02 07:34:33;;;;;;;39.23;22.43;;;;;;;-3.19;72.90;101201.41;126660;1093;104420;-77
2020/12/02 07:37:12;;;;;;;37.07;23.13;;;;;;;-3.16;72.48;101201.52;126724;1093;104438;-76
2020/12/02 07:39:50;;;;;;;36.03;22.50;;;;;;;-3.17;72.75;101207.44;126681;1099;104526;-76
2020/12/02 07:42:35;;;;;;;35.50;21.70;;;;;;;-3.19;72.67;101203.97;126647;1098;104510;-76
2020/12/02 07:45:27;;;;;;;37.23;21.63;;;;;;;-3.19;72.31;101204.84;126663;1094;104558;-76
2020/12/02 07:48:07;;;;;;;32.83;21.20;;;;;;;-3.21;72.45;101203.91;126735;1092;104375;-77
2020/12/02 07:51:02;;;;;;;38.10;22.70;;;;;;;-3.20;72.63;101210.75;126674;1093;104462;-77
2020/12/02 07:53:42;;;;;;;33.23;22.10;;;;;;;-3.18;72.14;101213.36;126707;1093;104417;-77
2020/12/02 07:56:18;;;;;;;35.30;22.53;;;;;;;-3.15;72.84;101208.37;126651;1093;104292;-76
2020/12/02 07:58:46;;;;;;;37.95;23.65;;;;;;;-3.13;72.73;101204.19;126730;1098;104597;-76
2020/12/02 08:01:44;;;;;;;36.83;23.03;;;;;;;-3.10;72.66;101210.27;126803;1093;104410;-76
2020/12/02 08:04:21;;;;;;;37.60;22.27;;;;;;;-3.10;71.88;101212.83;126685;1098;104814;-76
2020/12/02 08:06:57;;;;;;;;;;;;;;;-3.08;72.76;101205.23;126667;1093;104468;-76
2020/12/02 08:09:25;;;;;;;40.40;24.00;;;;;;;-3.08;72.38;101200.98;126653;1093;104516;-77
2020/12/02 08:12:00;;;;;;;44.50;24.23;;;;;;;-3.05;72.86;101208.79;126671;1093;104359;-77
2020/12/02 08:14:37;;;;;;;37.83;23.43;;;;;;;-3.01;72.34;101193.59;126672;1093;104388;-77
2020/12/02 08:17:15;;;;;;;39.47;24.77;;;;;;;-3.00;72.54;101200.43;126719;1093;104805;-76
2020/12/02 08:19:47;;;;;;;42.97;24.87;;;;;;;-2.96;72.41;101197.17;126659;1091;104488;-77
2020/12/02 08:22:45;;;;;;;38.80;23.97;;;;;;;-2.95;71.42;101199.78;126640;1093;104491;-77
2020/12/02 08:25:24;;;;;;;37.93;24.23;;;;;;;-2.93;71.77;101199.84;126691;1093;104398;-79
2020/12/02 08:27:56;;;;;;;37.63;23.50;;;;;;;-2.91;72.29;101199.08;126648;1093;104458;-78
2020/12/02 08:30:26;;;;;;;38.70;23.50;;;;;;;-2.92;71.59;101189.68;126683;1093;102752;-77
2020/12/02 08:33:02;;;;;;;44.10;24.23;;;;;;;-2.89;72.27;101194.02;126672;1093;104394;-76
2020/12/02 08:35:36;;;;;;;36.30;23.92;;;;;;;-2.85;71.82;101204.44;126682;1093;104272;-76
2020/12/02 08:38:04;;;;;;;40.97;23.60;;;;;;;-2.82;71.60;101199.44;126640;1093;104475;-76
2020/12/02 08:40:40;;;;;;;36.87;23.77;;;;;;;-2.84;70.87;101201.06;126641;1093;104920;-78
2020/12/02 08:43:37;;;;;;;39.10;24.30;;;;;;;-2.81;71.56;101207.96;126700;1093;104446;-76
2020/12/02 08:46:07;;;;;;;38.27;23.43;;;;;;;-2.84;70.69;101203.62;126651;1093;103153;-76
2020/12/02 08:48:36;;;;;;;38.92;23.05;;;;;;;-2.86;71.79;101202.70;126611;1093;104397;-76
2020/12/02 08:51:06;;;;;;;38.47;23.53;;;;;;;-2.83;71.20;101204.48;126660;1092;104512;-77
2020/12/02 08:53:33;;;;;;;38.23;24.03;;;;;;;-2.84;70.65;101197.64;126717;1093;104472;-76
2020/12/02 08:56:01;;;;;;;37.73;22.67;;;;;;;-2.81;70.91;101195.20;126672;1094;104445;-78
2020/12/02 08:58:28;;;;;;;37.37;23.07;;;;;;;-2.82;70.52;101196.02;126686;1093;104504;-76
2020/12/02 09:00:55;;;;;;;37.67;23.00;;;;;;;-2.83;71.17;101189.17;126675;1098;104420;-76
2020/12/02 09:03:24;;;;;;;37.93;23.93;;;;;;;-2.83;70.62;101190.03;126696;1093;104520;-75
2020/12/02 09:05:52;;;;;;;34.03;22.43;;;;;;;-2.82;70.53;101196.88;126731;1093;104474;-77
2020/12/02 09:08:19;;;;;;;42.10;24.23;;;;;;;-2.81;71.22;101193.52;126707;1098;103257;-77
2020/12/02 09:10:47;;;;;;;43.30;24.80;;;;;;;-2.75;71.17;101198.83;126716;1093;104445;-77
2020/12/02 09:13:14;;;;;;;37.83;23.67;;;;;;;-2.70;71.29;101185.36;126608;1093;105591;-76
2020/12/02 09:15:41;;;;;;;35.70;22.60;;;;;;;-2.70;70.36;101180.25;126722;1093;104462;-76
2020/12/02 09:18:08;;;;;;;38.27;22.60;;;;;;;-2.72;70.48;101175.09;126679;1098;103263;-76
2020/12/02 09:20:35;;;;;;;35.60;22.87;;;;;;;-2.73;70.24;101183.56;126732;1098;104576;-77
2020/12/02 09:23:02;;;;;;;33.83;23.00;;;;;;;-2.78;69.55;101183.41;126679;1093;104427;-77
2020/12/02 09:25:30;;;;;;;33.27;22.93;;;;;;;-2.82;69.79;101185.80;126699;1093;104846;-77
2020/12/02 09:27:57;;;;;;;34.00;22.60;;;;;;;-2.87;70.32;101172.87;126682;1098;104371;-76
2020/12/02 09:30:24;;;;;;;38.97;23.47;;;;;;;-2.89;70.98;101155.73;126470;1099;104499;-78
2020/12/02 09:32:51;;;;;;;37.60;23.70;;;;;;;-2.87;70.60;101157.56;126686;1093;104504;-77
2020/12/02 09:35:20;;;;;;;39.97;24.17;;;;;;;-2.87;70.71;101161.77;126692;1093;104423;-76
2020/12/02 09:37:48;;;;;;;43.70;26.03;;;;;;;-2.85;70.78;101149.95;126733;1093;104938;-73
2020/12/02 09:40:16;;;;;;;47.93;25.77;;;;;;;-2.82;70.78;101143.27;126664;1098;104490;-77
2020/12/02 09:43:09;;;;;;;44.50;25.65;;;;;;;-2.77;71.23;101144.30;126694;1093;104397;-77
2020/12/02 09:46:05;;;;;;;41.80;24.15;;;;;;;-2.70;70.98;101139.39;126642;1093;102976;-77
2020/12/02 09:48:33;;;;;;;31.43;21.20;;;;;;;-2.72;69.69;101133.37;126701;1092;104481;-75
2020/12/02 09:51:21;;;;;;;32.17;21.67;;;;;;;-2.73;69.85;101140.16;126670;1093;104490;-76
2020/12/02 09:53:49;;;;;;;35.03;21.43;;;;;;;-2.74;70.50;101123.97;126659;1093;104359;-77
2020/12/02 09:56:18;;;;;;;36.47;22.10;;;;;;;-2.71;70.28;101117.23;126718;1093;103195;-76
2020/12/02 09:58:45;;;;;;;33.80;21.57;;;;;;;-2.67;70.29;101119.97;126634;1093;103592;-74
2020/12/02 10:01:48;;;;;;;35.80;21.77;;;;;;;-2.62;69.89;101113.33;126653;1093;104202;-76
2020/12/02 10:04:27;;;;;;;34.17;21.07;;;;;;;-2.59;68.64;101118.54;126604;1093;104525;-76
2020/12/02 10:07:39;;;;;;;37.73;21.47;;;;;;;-2.60;69.69;101118.48;126686;1093;104417;-75
2020/12/02 10:10:22;;;;;;;34.17;21.17;;;;;;;-2.58;69.30;101101.53;126660;1093;104921;-76
2020/12/02 10:13:27;;;;;;;39.23;21.93;;;;;;;-2.57;69.19;101106.69;126655;1093;104450;-76
2020/12/02 10:16:37;;;;;;;34.30;21.37;;;;;;;-2.55;69.53;101099.08;126643;1093;104389;-76
2020/12/02 10:19:37;;;;;;;35.37;20.97;;;;;;;-2.57;69.32;101101.58;126633;1093;104532;-76
2020/12/02 10:22:34;;;;;;;31.40;20.70;;;;;;;-2.58;69.09;101092.19;126321;1096;102361;-76
2020/12/02 10:25:27;;;;;;;35.90;21.12;;;;;;;-2.56;69.51;101079.47;126578;1093;104388;-76
2020/12/02 10:28:22;;;;;;;34.10;21.53;;;;;;;-2.53;69.28;101085.54;126415;1093;104465;-76
2020/12/02 10:31:08;;;;;;;34.43;22.20;;;;;;;-2.49;69.59;101078.88;126422;1097;105027;-76
2020/12/02 10:33:50;;;;;;;34.03;21.83;;;;;;;-2.41;68.97;101079.12;126404;1096;104650;-76
2020/12/02 10:36:19;;;;;;;33.70;22.10;;;;;;;-2.38;69.25;101080.08;126292;1094;104494;-75
2020/12/02 10:38:54;;;;;;;33.77;22.83;;;;;;;-2.32;68.85;101090.53;126345;1097;104621;-76
2020/12/02 10:42:09;;;;;;;36.20;22.80;;;;;;;-2.27;68.66;101077.89;126358;1101;104506;-77
2020/12/02 10:45:02;;;;;;;34.40;21.40;;;;;;;-2.27;68.29;101080.45;126155;1097;104609;-75
2020/12/02 10:47:48;;;;;;;33.60;21.57;;;;;;;-2.26;67.40;101074.52;125998;1104;104516;-77
2020/12/02 10:50:18;;;;;;;37.03;22.37;;;;;;;-2.26;67.33;101077.08;125957;1097;104446;-78
2020/12/02 10:52:49;;;;;;;33.50;22.20;;;;;;;-2.28;67.35;101063.39;126071;1097;104541;-77
2020/12/02 10:55:22;;;;;;;33.97;22.00;;;;;;;-2.27;67.58;101065.12;126040;1100;104544;-77
2020/12/02 10:57:57;;;;;;;38.73;23.07;;;;;;;-2.24;68.49;101058.41;126158;1100;104503;-77
2020/12/02 11:00:24;;;;;;;35.75;22.90;;;;;;;-2.24;67.50;101063.53;126384;1101;104404;-77
2020/12/02 11:03:18;;;;;;;37.67;24.07;;;;;;;-2.28;66.97;101063.39;126384;1096;104516;-77
2020/12/02 11:06:19;;;;;;;41.27;24.37;;;;;;;-2.29;67.37;101057.41;126391;1101;104391;-78
2020/12/02 11:09:06;;;;;;;38.17;23.07;;;;;;;-2.30;67.16;101059.91;126403;1101;103205;-77
2020/12/02 11:11:51;;;;;;;34.97;21.47;;;;;;;-2.29;66.83;101056.54;126380;1096;104462;-77
2020/12/02 11:14:54;;;;;;;34.93;22.43;;;;;;;-2.31;66.69;101037.74;126320;1097;104606;-77
2020/12/02 11:17:38;;;;;;;36.60;23.00;;;;;;;-2.30;67.15;101034.37;126000;1096;104398;-76
2020/12/02 11:20:14;;;;;;;35.60;22.10;;;;;;;-2.29;67.51;101047.19;126353;1096;104538;-77
2020/12/02 11:23:05;;;;;;;38.95;23.10;;;;;;;-2.26;67.32;101043.86;126641;1093;104352;-76
2020/12/02 11:26:23;;;;;;;31.63;19.77;;;;;;;-2.25;67.08;101043.04;126668;1098;104336;-76
2020/12/02 11:28:53;;;;;;;34.10;20.05;;;;;;;-2.24;67.31;101037.11;126384;1093;104472;-77
2020/12/02 11:31:20;;;;;;;34.43;20.63;;;;;;;-2.21;67.18;101029.53;126383;1096;104506;-77